sensor_id;sensor_type;location;lat;lon;timestamp;temperature;humidity
54260;DHT22;40172;53.022;7.012;2022-08-19T00:00:17;14.30;99.90
54260;DHT22;40172;53.022;7.012;2022-08-19T00:02:43;14.20;99.90
54260;DHT22;40172;53.022;7.012;2022-08-19T00:05:10;14.20;99.90
54260;DHT22;40172;53.022;7.012;2022-08-19T00:07:36;14.20;99.90
54260;DHT22;40172;53.022;7.012;2022-08-19T00:10:07;14.10;99.90
54260;DHT22;40172;53.022;7.012;2022-08-19T00:12:33;14.20;99.90
54260;DHT22;40172;53.022;7.012;2022-08-19T00:14:59;14.20;99.90
54260;DHT22;40172;53.022;7.012;2022-08-19T00:17:25;14.20;99.90
54260;DHT22;40172;53.022;7.012;2022-08-19T00:19:51;14.20;99.90
54260;DHT22;40172;53.022;7.012;2022-08-19T00:22:16;14.20;99.90
54260;DHT22;40172;53.022;7.012;2022-08-19T00:24:44;14.20;99.90
54260;DHT22;40172;53.022;7.012;2022-08-19T00:27:10;14.10;99.90
54260;DHT22;40172;53.022;7.012;2022-08-19T00:29:36;14.10;99.90
54260;DHT22;40172;53.022;7.012;2022-08-19T00:32:02;14.10;99.90
54260;DHT22;40172;53.022;7.012;2022-08-19T00:34:28;14.10;99.90
54260;DHT22;40172;53.022;7.012;2022-08-19T00:36:55;14.00;99.90
54260;DHT22;40172;53.022;7.012;2022-08-19T00:39:20;14.00;99.90
54260;DHT22;40172;53.022;7.012;2022-08-19T00:41:47;14.00;99.90
54260;DHT22;40172;53.022;7.012;2022-08-19T00:46:44;14.00;99.90
54260;DHT22;40172;53.022;7.012;2022-08-19T00:49:24;14.20;99.90
54260;DHT22;40172;53.022;7.012;2022-08-19T00:51:55;14.10;99.90
54260;DHT22;40172;53.022;7.012;2022-08-19T00:54:23;14.00;99.90
54260;DHT22;40172;53.022;7.012;2022-08-19T00:56:49;14.00;99.90
54260;DHT22;40172;53.022;7.012;2022-08-19T00:59:16;14.00;99.90
54260;DHT22;40172;53.022;7.012;2022-08-19T01:01:45;13.90;99.90
54260;DHT22;40172;53.022;7.012;2022-08-19T01:04:11;13.80;99.90
54260;DHT22;40172;53.022;7.012;2022-08-19T01:06:38;13.80;99.90
54260;DHT22;40172;53.022;7.012;2022-08-19T01:09:06;13.90;99.90
54260;DHT22;40172;53.022;7.012;2022-08-19T01:11:35;13.80;99.90
54260;DHT22;40172;53.022;7.012;2022-08-19T01:14:02;13.70;99.90
54260;DHT22;40172;53.022;7.012;2022-08-19T01:16:29;13.60;99.90
54260;DHT22;40172;53.022;7.012;2022-08-19T01:18:55;13.60;99.90
54260;DHT22;40172;53.022;7.012;2022-08-19T01:21:32;13.40;99.90
54260;DHT22;40172;53.022;7.012;2022-08-19T01:24:00;13.40;99.90
54260;DHT22;40172;53.022;7.012;2022-08-19T01:26:26;13.30;99.90
54260;DHT22;40172;53.022;7.012;2022-08-19T01:28:55;13.20;99.90
54260;DHT22;40172;53.022;7.012;2022-08-19T01:31:24;13.20;99.90
54260;DHT22;40172;53.022;7.012;2022-08-19T01:33:52;13.10;99.90
54260;DHT22;40172;53.022;7.012;2022-08-19T01:36:29;13.40;99.90
54260;DHT22;40172;53.022;7.012;2022-08-19T01:38:56;13.10;99.90
54260;DHT22;40172;53.022;7.012;2022-08-19T01:41:23;13.10;99.90
54260;DHT22;40172;53.022;7.012;2022-08-19T01:43:51;13.10;99.90
54260;DHT22;40172;53.022;7.012;2022-08-19T01:46:17;13.10;99.90
54260;DHT22;40172;53.022;7.012;2022-08-19T01:48:45;13.10;99.90
54260;DHT22;40172;53.022;7.012;2022-08-19T01:51:12;13.20;99.90
54260;DHT22;40172;53.022;7.012;2022-08-19T01:53:39;13.20;99.90
54260;DHT22;40172;53.022;7.012;2022-08-19T01:56:06;13.40;99.90
54260;DHT22;40172;53.022;7.012;2022-08-19T01:58:40;13.20;99.90
54260;DHT22;40172;53.022;7.012;2022-08-19T02:01:07;13.20;99.90
54260;DHT22;40172;53.022;7.012;2022-08-19T02:03:33;13.20;99.90
54260;DHT22;40172;53.022;7.012;2022-08-19T02:06:02;13.20;99.90
54260;DHT22;40172;53.022;7.012;2022-08-19T02:08:31;13.20;99.90
54260;DHT22;40172;53.022;7.012;2022-08-19T02:10:57;13.10;99.90
54260;DHT22;40172;53.022;7.012;2022-08-19T02:13:23;13.00;99.90
54260;DHT22;40172;53.022;7.012;2022-08-19T02:15:49;12.90;99.90
54260;DHT22;40172;53.022;7.012;2022-08-19T02:18:15;12.80;99.90
54260;DHT22;40172;53.022;7.012;2022-08-19T02:20:41;12.80;99.90
54260;DHT22;40172;53.022;7.012;2022-08-19T02:23:08;12.80;99.90
54260;DHT22;40172;53.022;7.012;2022-08-19T02:25:34;12.70;99.90
54260;DHT22;40172;53.022;7.012;2022-08-19T02:27:59;12.70;99.90
54260;DHT22;40172;53.022;7.012;2022-08-19T02:30:25;12.60;99.90
54260;DHT22;40172;53.022;7.012;2022-08-19T02:32:51;12.70;99.90
54260;DHT22;40172;53.022;7.012;2022-08-19T02:35:18;12.70;99.90
54260;DHT22;40172;53.022;7.012;2022-08-19T02:37:44;13.10;99.90
54260;DHT22;40172;53.022;7.012;2022-08-19T02:40:29;12.60;99.90
54260;DHT22;40172;53.022;7.012;2022-08-19T02:42:55;12.60;99.90
54260;DHT22;40172;53.022;7.012;2022-08-19T02:45:21;12.70;99.90
54260;DHT22;40172;53.022;7.012;2022-08-19T02:47:47;12.80;99.90
54260;DHT22;40172;53.022;7.012;2022-08-19T02:50:13;12.70;99.90
54260;DHT22;40172;53.022;7.012;2022-08-19T02:52:38;12.80;99.90
54260;DHT22;40172;53.022;7.012;2022-08-19T02:55:05;12.90;99.90
54260;DHT22;40172;53.022;7.012;2022-08-19T02:57:31;12.90;99.90
54260;DHT22;40172;53.022;7.012;2022-08-19T02:59:57;12.80;99.90
54260;DHT22;40172;53.022;7.012;2022-08-19T03:02:23;12.90;99.90
54260;DHT22;40172;53.022;7.012;2022-08-19T03:04:49;13.60;99.90
54260;DHT22;40172;53.022;7.012;2022-08-19T03:07:17;13.00;99.90
54260;DHT22;40172;53.022;7.012;2022-08-19T03:09:43;13.00;99.90
54260;DHT22;40172;53.022;7.012;2022-08-19T03:12:09;13.00;99.90
54260;DHT22;40172;53.022;7.012;2022-08-19T03:14:36;13.00;99.90
54260;DHT22;40172;53.022;7.012;2022-08-19T03:17:02;12.90;99.90
54260;DHT22;40172;53.022;7.012;2022-08-19T03:19:30;13.10;99.90
54260;DHT22;40172;53.022;7.012;2022-08-19T03:21:57;13.00;99.90
54260;DHT22;40172;53.022;7.012;2022-08-19T03:24:23;12.90;99.90
54260;DHT22;40172;53.022;7.012;2022-08-19T03:26:52;12.90;99.90
54260;DHT22;40172;53.022;7.012;2022-08-19T03:29:20;12.90;99.90
54260;DHT22;40172;53.022;7.012;2022-08-19T03:31:46;12.80;99.90
54260;DHT22;40172;53.022;7.012;2022-08-19T03:34:14;12.80;99.90
54260;DHT22;40172;53.022;7.012;2022-08-19T03:36:40;12.80;99.90
54260;DHT22;40172;53.022;7.012;2022-08-19T03:39:06;12.80;99.90
54260;DHT22;40172;53.022;7.012;2022-08-19T03:41:38;14.10;99.90
54260;DHT22;40172;53.022;7.012;2022-08-19T03:44:04;12.90;99.90
54260;DHT22;40172;53.022;7.012;2022-08-19T03:46:32;12.90;99.90
54260;DHT22;40172;53.022;7.012;2022-08-19T03:48:59;13.50;99.90
54260;DHT22;40172;53.022;7.012;2022-08-19T03:51:31;12.70;99.90
54260;DHT22;40172;53.022;7.012;2022-08-19T03:53:59;12.70;99.90
54260;DHT22;40172;53.022;7.012;2022-08-19T03:56:26;12.70;99.90
54260;DHT22;40172;53.022;7.012;2022-08-19T03:58:54;12.60;99.90
54260;DHT22;40172;53.022;7.012;2022-08-19T04:01:22;12.60;99.90
54260;DHT22;40172;53.022;7.012;2022-08-19T04:03:49;12.60;99.90
54260;DHT22;40172;53.022;7.012;2022-08-19T04:06:24;13.70;99.90
54260;DHT22;40172;53.022;7.012;2022-08-19T04:08:52;12.60;99.90
54260;DHT22;40172;53.022;7.012;2022-08-19T04:11:23;12.60;99.90
54260;DHT22;40172;53.022;7.012;2022-08-19T04:13:50;12.40;99.90
54260;DHT22;40172;53.022;7.012;2022-08-19T04:16:18;12.40;99.90
54260;DHT22;40172;53.022;7.012;2022-08-19T04:18:45;12.30;99.90
54260;DHT22;40172;53.022;7.012;2022-08-19T04:21:16;12.30;99.90
54260;DHT22;40172;53.022;7.012;2022-08-19T04:23:42;12.40;99.90
54260;DHT22;40172;53.022;7.012;2022-08-19T04:26:16;12.30;99.90
54260;DHT22;40172;53.022;7.012;2022-08-19T04:28:44;12.20;99.90
54260;DHT22;40172;53.022;7.012;2022-08-19T04:31:19;12.20;99.90
54260;DHT22;40172;53.022;7.012;2022-08-19T04:33:45;12.20;99.90
54260;DHT22;40172;53.022;7.012;2022-08-19T04:36:19;12.10;99.90
54260;DHT22;40172;53.022;7.012;2022-08-19T04:38:49;12.10;99.90
54260;DHT22;40172;53.022;7.012;2022-08-19T04:41:16;12.20;99.90
54260;DHT22;40172;53.022;7.012;2022-08-19T04:47:42;12.10;99.90
54260;DHT22;40172;53.022;7.012;2022-08-19T04:50:10;12.20;99.90
54260;DHT22;40172;53.022;7.012;2022-08-19T04:52:36;12.40;99.90
54260;DHT22;40172;53.022;7.012;2022-08-19T04:55:03;12.50;99.90
54260;DHT22;40172;53.022;7.012;2022-08-19T04:57:31;12.40;99.90
54260;DHT22;40172;53.022;7.012;2022-08-19T04:59:57;12.30;99.90
54260;DHT22;40172;53.022;7.012;2022-08-19T05:02:23;12.30;99.90
54260;DHT22;40172;53.022;7.012;2022-08-19T05:04:50;13.90;99.90
54260;DHT22;40172;53.022;7.012;2022-08-19T05:07:16;12.20;99.90
54260;DHT22;40172;53.022;7.012;2022-08-19T05:09:41;12.30;99.90
54260;DHT22;40172;53.022;7.012;2022-08-19T05:12:08;12.30;99.90
54260;DHT22;40172;53.022;7.012;2022-08-19T05:14:33;12.40;99.90
54260;DHT22;40172;53.022;7.012;2022-08-19T05:17:00;12.40;99.90
54260;DHT22;40172;53.022;7.012;2022-08-19T05:19:26;12.50;99.90
54260;DHT22;40172;53.022;7.012;2022-08-19T05:22:10;12.40;99.90
54260;DHT22;40172;53.022;7.012;2022-08-19T05:24:54;12.40;99.90
54260;DHT22;40172;53.022;7.012;2022-08-19T05:27:20;12.40;99.90
54260;DHT22;40172;53.022;7.012;2022-08-19T05:29:46;12.40;99.90
54260;DHT22;40172;53.022;7.012;2022-08-19T05:32:11;12.50;99.90
54260;DHT22;40172;53.022;7.012;2022-08-19T05:34:37;12.60;99.90
54260;DHT22;40172;53.022;7.012;2022-08-19T05:37:05;12.50;99.90
54260;DHT22;40172;53.022;7.012;2022-08-19T05:39:33;13.40;99.90
54260;DHT22;40172;53.022;7.012;2022-08-19T05:42:05;12.70;99.90
54260;DHT22;40172;53.022;7.012;2022-08-19T05:44:34;12.90;99.90
54260;DHT22;40172;53.022;7.012;2022-08-19T05:47:01;13.10;99.90
54260;DHT22;40172;53.022;7.012;2022-08-19T05:49:28;12.90;99.90
54260;DHT22;40172;53.022;7.012;2022-08-19T05:51:54;13.10;99.90
54260;DHT22;40172;53.022;7.012;2022-08-19T05:54:21;13.30;99.90
54260;DHT22;40172;53.022;7.012;2022-08-19T05:56:50;13.40;99.90
54260;DHT22;40172;53.022;7.012;2022-08-19T05:59:16;14.40;99.90
54260;DHT22;40172;53.022;7.012;2022-08-19T06:05:23;14.00;99.90
54260;DHT22;40172;53.022;7.012;2022-08-19T06:07:49;15.30;99.90
54260;DHT22;40172;53.022;7.012;2022-08-19T06:10:14;14.30;99.90
54260;DHT22;40172;53.022;7.012;2022-08-19T06:12:40;14.50;99.90
54260;DHT22;40172;53.022;7.012;2022-08-19T06:15:09;14.50;99.90
54260;DHT22;40172;53.022;7.012;2022-08-19T06:17:35;14.80;99.90
54260;DHT22;40172;53.022;7.012;2022-08-19T06:20:03;14.80;99.90
54260;DHT22;40172;53.022;7.012;2022-08-19T06:22:29;14.90;99.90
54260;DHT22;40172;53.022;7.012;2022-08-19T06:24:55;15.10;99.90
54260;DHT22;40172;53.022;7.012;2022-08-19T06:27:21;15.50;99.90
54260;DHT22;40172;53.022;7.012;2022-08-19T06:29:47;15.40;99.90
54260;DHT22;40172;53.022;7.012;2022-08-19T06:32:15;15.60;99.90
54260;DHT22;40172;53.022;7.012;2022-08-19T06:34:41;15.70;99.90
54260;DHT22;40172;53.022;7.012;2022-08-19T06:40:48;16.10;99.90
54260;DHT22;40172;53.022;7.012;2022-08-19T06:43:13;16.30;99.90
54260;DHT22;40172;53.022;7.012;2022-08-19T06:45:41;16.50;99.90
54260;DHT22;40172;53.022;7.012;2022-08-19T06:48:07;16.70;99.90
54260;DHT22;40172;53.022;7.012;2022-08-19T06:50:33;16.90;99.90
54260;DHT22;40172;53.022;7.012;2022-08-19T06:52:58;17.10;99.90
54260;DHT22;40172;53.022;7.012;2022-08-19T06:55:24;17.20;99.90
54260;DHT22;40172;53.022;7.012;2022-08-19T06:57:49;17.40;99.90
54260;DHT22;40172;53.022;7.012;2022-08-19T07:00:18;17.60;99.90
54260;DHT22;40172;53.022;7.012;2022-08-19T07:02:44;17.80;99.90
54260;DHT22;40172;53.022;7.012;2022-08-19T07:05:10;17.90;99.90
54260;DHT22;40172;53.022;7.012;2022-08-19T07:07:36;18.10;99.90
54260;DHT22;40172;53.022;7.012;2022-08-19T07:10:03;18.40;99.90
54260;DHT22;40172;53.022;7.012;2022-08-19T07:12:30;18.50;99.90
54260;DHT22;40172;53.022;7.012;2022-08-19T07:14:58;18.70;99.90
54260;DHT22;40172;53.022;7.012;2022-08-19T07:17:23;18.90;99.90
54260;DHT22;40172;53.022;7.012;2022-08-19T07:19:49;19.10;99.90
54260;DHT22;40172;53.022;7.012;2022-08-19T07:22:15;19.20;99.90
54260;DHT22;40172;53.022;7.012;2022-08-19T07:24:41;19.30;99.90
54260;DHT22;40172;53.022;7.012;2022-08-19T07:27:07;19.50;99.90
54260;DHT22;40172;53.022;7.012;2022-08-19T07:29:35;19.70;99.90
54260;DHT22;40172;53.022;7.012;2022-08-19T07:32:02;19.80;99.90
54260;DHT22;40172;53.022;7.012;2022-08-19T07:34:29;19.90;99.90
54260;DHT22;40172;53.022;7.012;2022-08-19T07:36:56;19.90;99.90
54260;DHT22;40172;53.022;7.012;2022-08-19T07:39:28;20.00;99.90
54260;DHT22;40172;53.022;7.012;2022-08-19T07:41:56;20.00;99.90
54260;DHT22;40172;53.022;7.012;2022-08-19T07:44:21;20.00;99.90
54260;DHT22;40172;53.022;7.012;2022-08-19T07:46:51;20.00;99.90
54260;DHT22;40172;53.022;7.012;2022-08-19T07:49:18;20.00;99.90
54260;DHT22;40172;53.022;7.012;2022-08-19T07:52:00;20.00;99.90
54260;DHT22;40172;53.022;7.012;2022-08-19T07:54:31;20.10;99.90
54260;DHT22;40172;53.022;7.012;2022-08-19T07:56:57;20.30;99.90
54260;DHT22;40172;53.022;7.012;2022-08-19T07:59:24;20.30;99.90
54260;DHT22;40172;53.022;7.012;2022-08-19T08:01:50;20.40;99.90
54260;DHT22;40172;53.022;7.012;2022-08-19T08:04:17;20.50;99.90
54260;DHT22;40172;53.022;7.012;2022-08-19T08:07:02;20.50;99.90
54260;DHT22;40172;53.022;7.012;2022-08-19T08:09:47;20.60;99.90
54260;DHT22;40172;53.022;7.012;2022-08-19T08:12:22;20.70;99.90
54260;DHT22;40172;53.022;7.012;2022-08-19T08:14:52;20.80;99.90
54260;DHT22;40172;53.022;7.012;2022-08-19T08:17:21;20.90;99.90
54260;DHT22;40172;53.022;7.012;2022-08-19T08:19:47;21.10;99.90
54260;DHT22;40172;53.022;7.012;2022-08-19T08:22:15;21.40;99.90
54260;DHT22;40172;53.022;7.012;2022-08-19T08:25:22;21.30;99.90
54260;DHT22;40172;53.022;7.012;2022-08-19T08:27:49;21.50;99.90
54260;DHT22;40172;53.022;7.012;2022-08-19T08:30:25;21.60;99.90
54260;DHT22;40172;53.022;7.012;2022-08-19T08:32:52;21.70;99.90
54260;DHT22;40172;53.022;7.012;2022-08-19T08:35:21;21.70;99.90
54260;DHT22;40172;53.022;7.012;2022-08-19T08:37:49;21.80;99.90
54260;DHT22;40172;53.022;7.012;2022-08-19T08:40:28;21.90;99.90
54260;DHT22;40172;53.022;7.012;2022-08-19T08:43:00;22.00;99.90
54260;DHT22;40172;53.022;7.012;2022-08-19T08:45:28;22.10;99.90
54260;DHT22;40172;53.022;7.012;2022-08-19T08:47:56;22.10;99.90
54260;DHT22;40172;53.022;7.012;2022-08-19T08:50:35;22.10;99.90
54260;DHT22;40172;53.022;7.012;2022-08-19T08:53:04;22.20;99.90
54260;DHT22;40172;53.022;7.012;2022-08-19T08:55:31;22.40;99.90
54260;DHT22;40172;53.022;7.012;2022-08-19T08:58:35;22.50;99.90
54260;DHT22;40172;53.022;7.012;2022-08-19T09:00:52;22.60;99.90
54260;DHT22;40172;53.022;7.012;2022-08-19T09:03:25;22.80;99.90
54260;DHT22;40172;53.022;7.012;2022-08-19T09:10:54;23.20;99.90
54260;DHT22;40172;53.022;7.012;2022-08-19T09:13:38;23.40;99.90
54260;DHT22;40172;53.022;7.012;2022-08-19T09:16:11;23.60;99.90
54260;DHT22;40172;53.022;7.012;2022-08-19T09:18:40;23.70;99.90
54260;DHT22;40172;53.022;7.012;2022-08-19T09:21:06;24.70;99.90
54260;DHT22;40172;53.022;7.012;2022-08-19T09:23:34;23.80;99.90
54260;DHT22;40172;53.022;7.012;2022-08-19T09:26:00;23.80;99.90
54260;DHT22;40172;53.022;7.012;2022-08-19T09:28:26;24.00;99.90
54260;DHT22;40172;53.022;7.012;2022-08-19T09:30:52;24.00;99.90
54260;DHT22;40172;53.022;7.012;2022-08-19T09:33:18;24.10;99.90
54260;DHT22;40172;53.022;7.012;2022-08-19T09:35:45;24.20;99.90
54260;DHT22;40172;53.022;7.012;2022-08-19T09:38:11;24.70;99.90
54260;DHT22;40172;53.022;7.012;2022-08-19T09:40:37;24.50;99.90
54260;DHT22;40172;53.022;7.012;2022-08-19T09:43:02;24.60;99.90
54260;DHT22;40172;53.022;7.012;2022-08-19T09:45:28;24.70;99.90
54260;DHT22;40172;53.022;7.012;2022-08-19T09:47:54;24.80;99.90
54260;DHT22;40172;53.022;7.012;2022-08-19T09:50:22;24.90;99.90
54260;DHT22;40172;53.022;7.012;2022-08-19T09:52:49;25.00;99.90
54260;DHT22;40172;53.022;7.012;2022-08-19T09:55:14;25.00;99.90
54260;DHT22;40172;53.022;7.012;2022-08-19T09:57:41;25.50;99.90
54260;DHT22;40172;53.022;7.012;2022-08-19T10:00:08;25.10;99.90
54260;DHT22;40172;53.022;7.012;2022-08-19T10:02:35;25.10;99.90
54260;DHT22;40172;53.022;7.012;2022-08-19T10:05:01;25.10;99.90
54260;DHT22;40172;53.022;7.012;2022-08-19T10:07:45;24.90;99.90
54260;DHT22;40172;53.022;7.012;2022-08-19T10:10:10;25.20;99.90
54260;DHT22;40172;53.022;7.012;2022-08-19T10:12:36;25.30;99.90
54260;DHT22;40172;53.022;7.012;2022-08-19T10:15:04;25.40;99.90
54260;DHT22;40172;53.022;7.012;2022-08-19T10:17:30;25.50;99.90
54260;DHT22;40172;53.022;7.012;2022-08-19T10:19:56;25.60;99.90
54260;DHT22;40172;53.022;7.012;2022-08-19T10:22:23;25.70;99.90
54260;DHT22;40172;53.022;7.012;2022-08-19T10:24:48;25.80;99.90
54260;DHT22;40172;53.022;7.012;2022-08-19T10:27:15;25.80;99.90
54260;DHT22;40172;53.022;7.012;2022-08-19T10:29:40;26.60;99.90
54260;DHT22;40172;53.022;7.012;2022-08-19T10:32:08;26.00;99.90
54260;DHT22;40172;53.022;7.012;2022-08-19T10:34:37;26.10;99.90
54260;DHT22;40172;53.022;7.012;2022-08-19T10:37:05;26.00;99.90
54260;DHT22;40172;53.022;7.012;2022-08-19T10:39:32;26.00;99.90
54260;DHT22;40172;53.022;7.012;2022-08-19T10:41:59;26.20;99.90
54260;DHT22;40172;53.022;7.012;2022-08-19T10:44:25;25.80;99.90
54260;DHT22;40172;53.022;7.012;2022-08-19T10:46:51;25.80;99.90
54260;DHT22;40172;53.022;7.012;2022-08-19T10:49:17;25.30;99.90
54260;DHT22;40172;53.022;7.012;2022-08-19T10:51:44;25.80;99.90
54260;DHT22;40172;53.022;7.012;2022-08-19T10:54:29;25.80;99.90
54260;DHT22;40172;53.022;7.012;2022-08-19T10:57:14;25.80;99.90
54260;DHT22;40172;53.022;7.012;2022-08-19T10:59:40;25.90;99.90
54260;DHT22;40172;53.022;7.012;2022-08-19T11:02:08;26.00;99.90
54260;DHT22;40172;53.022;7.012;2022-08-19T11:04:39;26.10;99.90
54260;DHT22;40172;53.022;7.012;2022-08-19T11:07:06;26.20;99.90
54260;DHT22;40172;53.022;7.012;2022-08-19T11:09:38;26.30;99.90
54260;DHT22;40172;53.022;7.012;2022-08-19T11:12:05;26.40;99.90
54260;DHT22;40172;53.022;7.012;2022-08-19T11:14:32;26.50;99.90
54260;DHT22;40172;53.022;7.012;2022-08-19T11:16:59;27.50;99.90
54260;DHT22;40172;53.022;7.012;2022-08-19T11:19:25;26.60;99.90
54260;DHT22;40172;53.022;7.012;2022-08-19T11:21:52;26.60;99.90
54260;DHT22;40172;53.022;7.012;2022-08-19T11:24:24;26.60;99.90
54260;DHT22;40172;53.022;7.012;2022-08-19T11:26:51;26.40;99.90
54260;DHT22;40172;53.022;7.012;2022-08-19T11:29:20;26.50;99.90
54260;DHT22;40172;53.022;7.012;2022-08-19T11:31:47;26.50;99.90
54260;DHT22;40172;53.022;7.012;2022-08-19T11:34:17;26.60;99.90
54260;DHT22;40172;53.022;7.012;2022-08-19T11:36:45;26.70;99.90
54260;DHT22;40172;53.022;7.012;2022-08-19T11:39:13;26.90;99.90
54260;DHT22;40172;53.022;7.012;2022-08-19T11:41:39;27.00;99.90
54260;DHT22;40172;53.022;7.012;2022-08-19T11:44:09;27.20;99.60
54260;DHT22;40172;53.022;7.012;2022-08-19T11:46:36;27.20;99.90
54260;DHT22;40172;53.022;7.012;2022-08-19T11:49:03;27.40;99.90
54260;DHT22;40172;53.022;7.012;2022-08-19T11:51:30;28.20;99.20
54260;DHT22;40172;53.022;7.012;2022-08-19T11:53:58;27.30;97.90
54260;DHT22;40172;53.022;7.012;2022-08-19T11:56:27;27.20;98.20
54260;DHT22;40172;53.022;7.012;2022-08-19T11:59:00;27.40;98.60
54260;DHT22;40172;53.022;7.012;2022-08-19T12:01:34;27.20;99.00
54260;DHT22;40172;53.022;7.012;2022-08-19T12:04:00;27.40;98.90
54260;DHT22;40172;53.022;7.012;2022-08-19T12:06:32;27.40;97.60
54260;DHT22;40172;53.022;7.012;2022-08-19T12:09:00;27.50;98.30
54260;DHT22;40172;53.022;7.012;2022-08-19T12:11:26;28.00;98.20
54260;DHT22;40172;53.022;7.012;2022-08-19T12:13:52;27.30;97.90
54260;DHT22;40172;53.022;7.012;2022-08-19T12:16:34;27.10;98.30
54260;DHT22;40172;53.022;7.012;2022-08-19T12:19:01;27.10;96.90
54260;DHT22;40172;53.022;7.012;2022-08-19T12:21:31;27.00;96.50
54260;DHT22;40172;53.022;7.012;2022-08-19T12:23:58;28.60;96.70
54260;DHT22;40172;53.022;7.012;2022-08-19T12:26:25;27.90;96.90
54260;DHT22;40172;53.022;7.012;2022-08-19T12:28:52;28.00;98.00
54260;DHT22;40172;53.022;7.012;2022-08-19T12:31:19;26.70;98.10
54260;DHT22;40172;53.022;7.012;2022-08-19T12:33:46;26.50;98.50
54260;DHT22;40172;53.022;7.012;2022-08-19T12:36:14;26.50;99.00
54260;DHT22;40172;53.022;7.012;2022-08-19T12:38:41;26.00;99.30
54260;DHT22;40172;53.022;7.012;2022-08-19T12:41:12;25.90;99.90
54260;DHT22;40172;53.022;7.012;2022-08-19T12:43:38;25.90;99.90
54260;DHT22;40172;53.022;7.012;2022-08-19T12:46:05;25.80;99.90
54260;DHT22;40172;53.022;7.012;2022-08-19T12:48:32;25.90;99.90
54260;DHT22;40172;53.022;7.012;2022-08-19T12:50:58;25.90;99.20
54260;DHT22;40172;53.022;7.012;2022-08-19T12:53:23;25.90;98.90
54260;DHT22;40172;53.022;7.012;2022-08-19T12:55:57;26.60;99.60
54260;DHT22;40172;53.022;7.012;2022-08-19T12:58:23;25.90;99.70
54260;DHT22;40172;53.022;7.012;2022-08-19T13:00:48;25.90;99.50
54260;DHT22;40172;53.022;7.012;2022-08-19T13:03:14;25.90;99.80
54260;DHT22;40172;53.022;7.012;2022-08-19T13:05:40;25.80;99.90
54260;DHT22;40172;53.022;7.012;2022-08-19T13:08:06;25.70;99.90
54260;DHT22;40172;53.022;7.012;2022-08-19T13:10:34;25.60;99.90
54260;DHT22;40172;53.022;7.012;2022-08-19T13:13:04;25.50;99.90
54260;DHT22;40172;53.022;7.012;2022-08-19T13:15:34;25.50;99.90
54260;DHT22;40172;53.022;7.012;2022-08-19T13:18:00;25.40;99.90
54260;DHT22;40172;53.022;7.012;2022-08-19T13:20:26;25.40;99.90
54260;DHT22;40172;53.022;7.012;2022-08-19T13:22:52;25.20;99.90
54260;DHT22;40172;53.022;7.012;2022-08-19T13:25:18;25.20;99.90
54260;DHT22;40172;53.022;7.012;2022-08-19T13:27:46;25.20;99.90
54260;DHT22;40172;53.022;7.012;2022-08-19T13:30:13;25.10;99.90
54260;DHT22;40172;53.022;7.012;2022-08-19T13:32:58;25.00;99.90
54260;DHT22;40172;53.022;7.012;2022-08-19T13:35:37;24.90;99.90
54260;DHT22;40172;53.022;7.012;2022-08-19T13:38:03;25.00;99.90
54260;DHT22;40172;53.022;7.012;2022-08-19T13:40:31;24.90;99.90
54260;DHT22;40172;53.022;7.012;2022-08-19T13:43:00;24.90;99.90
54260;DHT22;40172;53.022;7.012;2022-08-19T13:45:27;26.00;99.90
54260;DHT22;40172;53.022;7.012;2022-08-19T13:47:57;25.10;99.90
54260;DHT22;40172;53.022;7.012;2022-08-19T13:50:28;25.20;99.90
54260;DHT22;40172;53.022;7.012;2022-08-19T13:52:54;25.90;99.90
54260;DHT22;40172;53.022;7.012;2022-08-19T13:55:21;25.60;99.90
54260;DHT22;40172;53.022;7.012;2022-08-19T13:57:52;25.70;99.90
54260;DHT22;40172;53.022;7.012;2022-08-19T14:00:18;25.90;99.90
54260;DHT22;40172;53.022;7.012;2022-08-19T14:02:46;26.30;99.90
54260;DHT22;40172;53.022;7.012;2022-08-19T14:05:14;26.40;99.90
54260;DHT22;40172;53.022;7.012;2022-08-19T14:07:41;26.60;99.90
54260;DHT22;40172;53.022;7.012;2022-08-19T14:10:09;26.70;99.90
54260;DHT22;40172;53.022;7.012;2022-08-19T14:12:35;26.70;98.90
54260;DHT22;40172;53.022;7.012;2022-08-19T14:15:00;26.70;98.10
54260;DHT22;40172;53.022;7.012;2022-08-19T14:17:27;25.70;96.90
54260;DHT22;40172;53.022;7.012;2022-08-19T14:20:06;26.70;95.60
54260;DHT22;40172;53.022;7.012;2022-08-19T14:22:35;26.70;95.10
54260;DHT22;40172;53.022;7.012;2022-08-19T14:25:02;26.70;94.80
54260;DHT22;40172;53.022;7.012;2022-08-19T14:27:28;26.80;95.10
54260;DHT22;40172;53.022;7.012;2022-08-19T14:29:54;26.70;94.70
54260;DHT22;40172;53.022;7.012;2022-08-19T14:32:20;26.70;95.00
54260;DHT22;40172;53.022;7.012;2022-08-19T14:34:47;26.60;95.80
54260;DHT22;40172;53.022;7.012;2022-08-19T14:37:13;26.60;96.20
54260;DHT22;40172;53.022;7.012;2022-08-19T14:39:40;25.60;96.00
54260;DHT22;40172;53.022;7.012;2022-08-19T14:42:10;26.50;96.60
54260;DHT22;40172;53.022;7.012;2022-08-19T14:44:36;26.60;96.80
54260;DHT22;40172;53.022;7.012;2022-08-19T14:47:03;27.00;98.30
54260;DHT22;40172;53.022;7.012;2022-08-19T14:49:28;26.50;99.40
54260;DHT22;40172;53.022;7.012;2022-08-19T14:51:54;26.20;99.90
54260;DHT22;40172;53.022;7.012;2022-08-19T14:54:20;25.90;99.90
54260;DHT22;40172;53.022;7.012;2022-08-19T14:56:46;25.60;99.90
54260;DHT22;40172;53.022;7.012;2022-08-19T14:59:13;25.40;99.90
54260;DHT22;40172;53.022;7.012;2022-08-19T15:01:39;25.30;99.90
54260;DHT22;40172;53.022;7.012;2022-08-19T15:04:04;25.20;99.90
54260;DHT22;40172;53.022;7.012;2022-08-19T15:06:31;25.00;99.90
54260;DHT22;40172;53.022;7.012;2022-08-19T15:08:58;25.00;99.90
54260;DHT22;40172;53.022;7.012;2022-08-19T15:11:25;24.80;99.90
54260;DHT22;40172;53.022;7.012;2022-08-19T15:13:52;25.80;99.90
54260;DHT22;40172;53.022;7.012;2022-08-19T15:16:19;25.10;99.90
54260;DHT22;40172;53.022;7.012;2022-08-19T15:18:46;24.50;99.90
54260;DHT22;40172;53.022;7.012;2022-08-19T15:21:14;24.40;99.90
54260;DHT22;40172;53.022;7.012;2022-08-19T15:23:42;24.40;99.90
54260;DHT22;40172;53.022;7.012;2022-08-19T15:26:08;24.30;99.90
54260;DHT22;40172;53.022;7.012;2022-08-19T15:28:35;24.20;99.90
54260;DHT22;40172;53.022;7.012;2022-08-19T15:31:01;24.20;99.90
54260;DHT22;40172;53.022;7.012;2022-08-19T15:33:27;24.30;99.90
54260;DHT22;40172;53.022;7.012;2022-08-19T15:35:53;24.20;99.90
54260;DHT22;40172;53.022;7.012;2022-08-19T15:38:20;24.30;99.90
54260;DHT22;40172;53.022;7.012;2022-08-19T15:40:50;24.20;99.90
54260;DHT22;40172;53.022;7.012;2022-08-19T15:43:17;24.20;99.90
54260;DHT22;40172;53.022;7.012;2022-08-19T15:45:46;24.10;99.90
54260;DHT22;40172;53.022;7.012;2022-08-19T15:48:11;24.10;99.90
54260;DHT22;40172;53.022;7.012;2022-08-19T15:50:37;24.00;99.90
54260;DHT22;40172;53.022;7.012;2022-08-19T15:53:07;23.90;99.90